Time,TemperatureF,DewpointF,PressureIn,WindDirection,WindDirectionDegrees,WindSpeedMPH,WindSpeedGustMPH,Humidity,HourlyPrecipIn,Conditions,Clouds,dailyrainin,SoftwareType,DateUTC
2013-07-20 00:02:00,75.0,68.0,-100.00,North,-999,-999.0,-999.0,80,0.00,,,0.00,,2013-07-20 05:02:00,
2013-07-20 00:22:00,74.0,68.0,-100.00,North,-999,-999.0,-999.0,81,0.00,,,0.00,,2013-07-20 05:22:00,
2013-07-20 00:32:00,74.0,68.0,-100.00,North,-999,-999.0,-999.0,81,0.00,,,0.00,,2013-07-20 05:32:00,
2013-07-20 00:52:00,74.0,69.0,-100.00,North,-999,-999.0,-999.0,84,0.00,,,0.00,,2013-07-20 05:52:00,
2013-07-20 01:01:00,74.0,69.0,-100.00,North,-999,-999.0,-999.0,85,0.00,,,0.00,,2013-07-20 06:01:00,
2013-07-20 01:21:00,74.0,69.0,-100.00,North,-999,-999.0,-999.0,86,0.00,,,-99.99,,2013-07-20 06:21:00,
2013-07-20 01:32:00,73.0,70.0,-100.00,North,-999,-999.0,-999.0,88,0.00,,,0.00,,2013-07-20 06:32:00,
2013-07-20 01:52:00,73.0,69.0,-100.00,North,-999,-999.0,-999.0,88,0.00,,,-99.99,,2013-07-20 06:52:00,
2013-07-20 02:01:00,73.0,70.0,-100.00,North,-999,-999.0,-999.0,89,0.00,,,0.00,,2013-07-20 07:01:00,
2013-07-20 02:22:00,74.0,70.0,-100.00,North,-999,-999.0,-999.0,89,0.00,,,-99.99,,2013-07-20 07:22:00,
2013-07-20 02:33:00,73.0,70.0,-100.00,North,-999,-999.0,-999.0,90,0.00,,,0.00,,2013-07-20 07:33:00,
2013-07-20 02:44:00,73.0,70.0,-100.00,North,-999,-999.0,-999.0,90,0.00,,,0.00,,2013-07-20 07:44:00,
2013-07-20 02:53:00,73.0,70.0,-100.00,North,-999,-999.0,-999.0,90,0.00,,,0.00,,2013-07-20 07:53:00,
2013-07-20 03:01:00,73.0,70.0,-100.00,North,-999,-999.0,-999.0,90,0.00,,,0.00,,2013-07-20 08:01:00,
2013-07-20 03:22:00,73.0,70.0,-100.00,North,-999,-999.0,-999.0,91,0.00,,,-99.99,,2013-07-20 08:22:00,
2013-07-20 03:32:00,73.0,70.0,-100.00,North,-999,-999.0,-999.0,91,0.00,,,-99.99,,2013-07-20 08:32:00,
2013-07-20 03:52:00,73.0,71.0,-100.00,North,-999,-999.0,-999.0,92,-99.99,,,0.00,,2013-07-20 08:52:00,
2013-07-20 04:02:00,73.0,71.0,-100.00,North,-999,-999.0,-999.0,92,-99.99,,,0.00,,2013-07-20 09:02:00,
2013-07-20 04:22:00,73.0,71.0,-100.00,North,-999,-999.0,-999.0,93,0.00,,,0.00,,2013-07-20 09:22:00,
2013-07-20 04:33:00,73.0,71.0,-100.00,North,-999,-999.0,-999.0,93,0.00,,,0.00,,2013-07-20 09:33:00,
2013-07-20 04:53:00,72.0,71.0,-100.00,North,-999,-999.0,-999.0,95,0.00,,,0.00,,2013-07-20 09:53:00,
2013-07-20 05:01:00,72.0,71.0,-100.00,North,-999,-999.0,-999.0,95,0.00,,,0.00,,2013-07-20 10:01:00,
2013-07-20 05:21:00,72.0,71.0,-100.00,North,-999,-999.0,-999.0,97,0.00,,,0.00,,2013-07-20 10:21:00,
2013-07-20 05:32:00,72.0,71.0,-100.00,North,-999,-999.0,-999.0,97,0.00,,,0.00,,2013-07-20 10:32:00,
2013-07-20 05:52:00,71.0,71.0,-100.00,North,-999,-999.0,-999.0,100,0.00,,,0.00,,2013-07-20 10:52:00,
2013-07-20 06:01:00,71.0,71.0,-100.00,North,-999,-999.0,-999.0,100,0.00,,,0.00,,2013-07-20 11:01:00,
2013-07-20 06:22:00,71.0,71.0,-100.00,North,-999,-999.0,-999.0,100,0.00,,,-99.99,,2013-07-20 11:22:00,
2013-07-20 06:32:00,71.0,71.0,-100.00,North,-999,-999.0,-999.0,100,0.00,,,-99.99,,2013-07-20 11:32:00,
2013-07-20 06:52:00,70.0,70.0,-100.00,North,-999,-999.0,-999.0,100,0.00,,,0.00,,2013-07-20 11:52:00,
2013-07-20 07:01:00,70.0,70.0,-100.00,North,-999,-999.0,-999.0,100,0.00,,,0.00,,2013-07-20 12:01:00,
2013-07-20 07:22:00,70.0,70.0,-100.00,North,-999,-999.0,-999.0,100,0.00,,,0.00,,2013-07-20 12:22:00,
2013-07-20 07:32:00,70.0,70.0,-100.00,North,-999,-999.0,-999.0,100,0.00,,,0.00,,2013-07-20 12:32:00,
2013-07-20 07:52:00,70.0,70.0,-100.00,North,-999,-999.0,-999.0,100,0.00,,,0.00,,2013-07-20 12:52:00,
2013-07-20 08:01:00,71.0,71.0,-100.00,North,-999,-999.0,-999.0,100,0.00,,,0.00,,2013-07-20 13:01:00,
2013-07-20 08:22:00,72.0,72.0,-100.00,North,-999,-999.0,-999.0,98,0.00,,,0.00,,2013-07-20 13:22:00,
2013-07-20 08:32:00,73.0,71.0,-100.00,North,-999,-999.0,-999.0,93,0.00,,,0.00,,2013-07-20 13:32:00,
2013-07-20 08:53:00,74.0,71.0,-100.00,North,-999,-999.0,-999.0,90,-99.99,,,0.00,,2013-07-20 13:53:00,
2013-07-20 09:02:00,75.0,70.0,-100.00,North,-999,-999.0,-999.0,85,0.00,,,0.00,,2013-07-20 14:02:00,
2013-07-20 09:22:00,76.0,70.0,-100.00,North,-999,-999.0,-999.0,81,0.00,,,0.00,,2013-07-20 14:22:00,
2013-07-20 09:32:00,77.0,70.0,-100.00,North,-999,-999.0,-999.0,79,0.00,,,0.00,,2013-07-20 14:32:00,
2013-07-20 09:53:00,77.0,69.0,-100.00,North,-999,-999.0,-999.0,77,0.00,,,0.00,,2013-07-20 14:53:00,
2013-07-20 10:01:00,78.0,69.0,-100.00,North,-999,-999.0,-999.0,73,0.00,,,0.00,,2013-07-20 15:01:00,
2013-07-20 10:11:00,78.0,69.0,-100.00,North,-999,-999.0,-999.0,73,0.00,,,0.00,,2013-07-20 15:11:00,
2013-07-20 10:22:00,78.0,69.0,-100.00,North,-999,-999.0,-999.0,73,0.00,,,0.00,,2013-07-20 15:22:00,
2013-07-20 10:33:00,80.0,68.0,-100.00,North,-999,-999.0,-999.0,67,0.00,,,0.00,,2013-07-20 15:33:00,
2013-07-20 10:44:00,80.0,68.0,-100.00,North,-999,-999.0,-999.0,67,0.00,,,0.00,,2013-07-20 15:44:00,
2013-07-20 10:53:00,80.0,68.0,-100.00,North,-999,-999.0,-999.0,67,0.00,,,0.00,,2013-07-20 15:53:00,
2013-07-20 11:01:00,81.0,68.0,-100.00,North,-999,-999.0,-999.0,64,0.00,,,0.00,,2013-07-20 16:01:00,
2013-07-20 11:22:00,81.0,68.0,-100.00,North,-999,-999.0,-999.0,65,-99.99,,,0.00,,2013-07-20 16:22:00,
2013-07-20 11:32:00,82.0,68.0,-100.00,North,-999,-999.0,-999.0,62,0.00,,,0.00,,2013-07-20 16:32:00,
2013-07-20 11:52:00,82.0,67.0,-100.00,North,-999,-999.0,-999.0,59,-99.99,,,0.00,,2013-07-20 16:52:00,
2013-07-20 12:02:00,83.0,68.0,-100.00,North,-999,-999.0,-999.0,60,0.00,,,0.00,,2013-07-20 17:02:00,
2013-07-20 12:22:00,83.0,65.0,-100.00,North,-999,-999.0,-999.0,54,0.00,,,0.00,,2013-07-20 17:22:00,
2013-07-20 12:32:00,84.0,67.0,-100.00,North,-999,-999.0,-999.0,56,0.00,,,0.00,,2013-07-20 17:32:00,
2013-07-20 12:43:00,84.0,67.0,-100.00,North,-999,-999.0,-999.0,56,0.00,,,0.00,,2013-07-20 17:43:00,
2013-07-20 12:53:00,84.0,67.0,-100.00,North,-999,-999.0,-999.0,56,0.00,,,0.00,,2013-07-20 17:53:00,
2013-07-20 13:01:00,85.0,69.0,-100.00,North,-999,-999.0,-999.0,58,0.00,,,0.00,,2013-07-20 18:01:00,
2013-07-20 13:35:00,86.0,68.0,-100.00,North,-999,-999.0,-999.0,55,0.00,,,0.00,,2013-07-20 18:35:00,
2013-07-20 13:55:00,86.0,66.0,-100.00,North,-999,-999.0,-999.0,51,0.00,,,0.00,,2013-07-20 18:55:00,
2013-07-20 14:04:00,86.0,67.0,-100.00,North,-999,-999.0,-999.0,52,0.00,,,0.00,,2013-07-20 19:04:00,
2013-07-20 14:24:00,88.0,67.0,-100.00,North,-999,-999.0,-999.0,51,0.00,,,0.00,,2013-07-20 19:24:00,
2013-07-20 14:43:00,88.0,67.0,-100.00,North,-999,-999.0,-999.0,51,0.00,,,0.00,,2013-07-20 19:43:00,
2013-07-20 14:53:00,88.0,67.0,-100.00,North,-999,-999.0,-999.0,51,0.00,,,0.00,,2013-07-20 19:53:00,
2013-07-20 15:23:00,87.0,64.0,-100.00,North,-999,-999.0,-999.0,46,0.00,,,-99.99,,2013-07-20 20:23:00,
2013-07-20 15:33:00,89.0,66.0,-100.00,North,-999,-999.0,-999.0,47,0.00,,,0.00,,2013-07-20 20:33:00,
2013-07-20 15:55:00,88.0,65.0,-100.00,North,-999,-999.0,-999.0,47,0.00,,,0.00,,2013-07-20 20:55:00,
2013-07-20 16:03:00,89.0,62.0,-100.00,North,-999,-999.0,-999.0,40,0.00,,,0.00,,2013-07-20 21:03:00,
2013-07-20 16:33:00,89.0,66.0,-100.00,North,-999,-999.0,-999.0,47,0.00,,,0.00,,2013-07-20 21:33:00,
2013-07-20 16:44:00,89.0,66.0,-100.00,North,-999,-999.0,-999.0,47,0.00,,,0.00,,2013-07-20 21:44:00,
2013-07-20 16:55:00,89.0,66.0,-100.00,North,-999,-999.0,-999.0,47,0.00,,,0.00,,2013-07-20 21:55:00,
2013-07-20 17:05:00,88.0,66.0,-100.00,North,-999,-999.0,-999.0,49,0.00,,,0.00,,2013-07-20 22:05:00,
2013-07-20 17:25:00,89.0,64.0,-100.00,North,-999,-999.0,-999.0,44,0.00,,,0.00,,2013-07-20 22:25:00,
2013-07-20 17:33:00,90.0,62.0,-100.00,North,-999,-999.0,-999.0,40,0.00,,,0.00,,2013-07-20 22:33:00,
2013-07-20 17:54:00,90.0,63.0,-100.00,North,-999,-999.0,-999.0,41,0.00,,,0.00,,2013-07-20 22:54:00,
2013-07-20 18:03:00,90.0,62.0,-100.00,North,-999,-999.0,-999.0,40,0.00,,,0.00,,2013-07-20 23:03:00,
2013-07-20 18:26:00,90.0,63.0,-100.00,North,-999,-999.0,-999.0,41,0.00,,,0.00,,2013-07-20 23:26:00,
2013-07-20 18:36:00,90.0,62.0,-100.00,North,-999,-999.0,-999.0,40,0.00,,,0.00,,2013-07-20 23:36:00,
2013-07-20 18:54:00,90.0,64.0,-100.00,North,-999,-999.0,-999.0,42,0.00,,,0.00,,2013-07-20 23:54:00,
2013-07-20 19:06:00,90.0,65.0,-100.00,North,-999,-999.0,-999.0,44,0.00,,,0.00,,2013-07-21 00:06:00,
2013-07-20 19:22:00,90.0,65.0,-100.00,North,-999,-999.0,-999.0,44,0.00,,,0.00,,2013-07-21 00:22:00,
2013-07-20 19:55:00,88.0,65.0,-100.00,North,-999,-999.0,-999.0,46,0.00,,,0.00,,2013-07-21 00:55:00,
2013-07-20 20:06:00,88.0,63.0,-100.00,North,-999,-999.0,-999.0,44,0.00,,,0.00,,2013-07-21 01:06:00,
2013-07-20 20:25:00,87.0,65.0,-100.00,North,-999,-999.0,-999.0,47,0.00,,,0.00,,2013-07-21 01:25:00,
2013-07-20 20:36:00,86.0,67.0,-100.00,North,-999,-999.0,-999.0,53,0.00,,,0.00,,2013-07-21 01:36:00,
2013-07-20 20:55:00,84.0,66.0,-100.00,North,-999,-999.0,-999.0,55,0.00,,,0.00,,2013-07-21 01:55:00,
2013-07-20 21:04:00,83.0,67.0,-100.00,North,-999,-999.0,-999.0,58,0.00,,,0.00,,2013-07-21 02:04:00,
2013-07-20 21:15:00,83.0,67.0,-100.00,North,-999,-999.0,-999.0,58,0.00,,,0.00,,2013-07-21 02:15:00,
2013-07-20 21:24:00,83.0,67.0,-100.00,North,-999,-999.0,-999.0,58,0.00,,,0.00,,2013-07-21 02:24:00,
2013-07-20 21:36:00,83.0,67.0,-100.00,North,-999,-999.0,-999.0,58,0.00,,,0.00,,2013-07-21 02:36:00,
2013-07-20 21:58:00,79.0,67.0,-100.00,North,-999,-999.0,-999.0,66,0.00,,,0.00,,2013-07-21 02:58:00,
2013-07-20 22:04:00,79.0,68.0,-100.00,North,-999,-999.0,-999.0,70,0.00,,,0.00,,2013-07-21 03:04:00,
2013-07-20 22:24:00,78.0,69.0,-100.00,North,-999,-999.0,-999.0,74,-99.99,,,0.00,,2013-07-21 03:24:00,
2013-07-20 22:34:00,78.0,69.0,-100.00,North,-999,-999.0,-999.0,74,-99.99,,,0.00,,2013-07-21 03:34:00,
2013-07-20 22:44:00,78.0,69.0,-100.00,North,-999,-999.0,-999.0,74,-99.99,,,0.00,,2013-07-21 03:44:00,
2013-07-20 22:54:00,78.0,69.0,-100.00,North,-999,-999.0,-999.0,74,-99.99,,,0.00,,2013-07-21 03:54:00,
2013-07-20 23:01:00,76.0,70.0,-100.00,North,-999,-999.0,-999.0,80,0.00,,,0.00,,2013-07-21 04:01:00,
2013-07-20 23:22:00,76.0,69.0,-100.00,North,-999,-999.0,-999.0,79,0.00,,,0.00,,2013-07-21 04:22:00,
2013-07-20 23:32:00,76.0,70.0,-100.00,North,-999,-999.0,-999.0,81,0.00,,,0.00,,2013-07-21 04:32:00,
2013-07-20 23:53:00,75.0,69.0,-100.00,North,-999,-999.0,-999.0,82,0.00,,,0.00,,2013-07-21 04:53:00,